createdAt,value
2019-01-25T00:00:05.533Z,-3.70
2019-01-25T00:02:34.931Z,-3.70
2019-01-25T00:05:05.502Z,-3.70
2019-01-25T00:07:34.842Z,-3.70
2019-01-25T00:10:04.940Z,-3.70
2019-01-25T00:12:34.283Z,-3.70
2019-01-25T00:15:03.994Z,-3.70
2019-01-25T00:17:33.683Z,-3.80
2019-01-25T00:20:03.063Z,-3.80
2019-01-25T00:22:32.354Z,-3.80
2019-01-25T00:25:02.429Z,-3.90
2019-01-25T00:27:31.785Z,-3.90
2019-01-25T00:30:20.219Z,-3.80
2019-01-25T00:32:49.917Z,-3.80
2019-01-25T00:35:19.423Z,-3.80
2019-01-25T00:37:48.765Z,-3.90
2019-01-25T00:40:18.062Z,-3.90
2019-01-25T00:42:48.026Z,-3.90
2019-01-25T00:45:17.671Z,-3.90
2019-01-25T00:48:06.810Z,-3.90
2019-01-25T00:50:36.247Z,-3.90
2019-01-25T00:53:25.153Z,-3.80
2019-01-25T00:55:54.710Z,-3.80
2019-01-25T00:58:43.546Z,-3.80
2019-01-25T01:01:13.191Z,-3.80
2019-01-25T01:03:42.491Z,-3.80
2019-01-25T01:06:12.075Z,-3.80
2019-01-25T01:08:41.841Z,-3.90
2019-01-25T01:11:11.953Z,-3.80
2019-01-25T01:13:41.401Z,-3.80
2019-01-25T01:16:22.892Z,-3.80
2019-01-25T01:18:52.625Z,-3.90
2019-01-25T01:21:22.062Z,-3.80
2019-01-25T01:23:51.371Z,-3.80
2019-01-25T01:26:20.566Z,-3.90
2019-01-25T01:28:50.191Z,-3.90
2019-01-25T01:31:19.854Z,-3.90
2019-01-25T01:33:49.144Z,-3.90
2019-01-25T01:36:18.445Z,-3.90
2019-01-25T01:38:47.822Z,-3.90
2019-01-25T01:41:17.484Z,-3.90
2019-01-25T01:43:46.780Z,-3.90
2019-01-25T01:46:16.357Z,-3.90
2019-01-25T01:48:45.959Z,-3.90
2019-01-25T01:51:15.291Z,-3.90
2019-01-25T01:53:44.489Z,-3.90
2019-01-25T01:56:13.752Z,-3.90
2019-01-25T01:58:43.373Z,-3.90
2019-01-25T02:01:12.638Z,-3.90
2019-01-25T02:03:42.072Z,-3.90
2019-01-25T02:06:30.775Z,-3.90
2019-01-25T02:09:00.227Z,-3.90
2019-01-25T02:11:29.502Z,-3.90
2019-01-25T02:13:59.158Z,-3.90
2019-01-25T02:16:28.430Z,-3.90
2019-01-25T02:18:57.890Z,-3.90
2019-01-25T02:21:27.271Z,-3.90
2019-01-25T02:23:56.696Z,-3.90
2019-01-25T02:26:25.962Z,-3.90
2019-01-25T02:28:55.674Z,-3.90
2019-01-25T02:31:25.294Z,-3.90
2019-01-25T02:33:54.691Z,-3.90
2019-01-25T02:36:24.320Z,-3.90
2019-01-25T02:38:53.977Z,-3.90
2019-01-25T02:41:23.416Z,-3.90
2019-01-25T02:43:53.024Z,-3.90
2019-01-25T02:46:22.718Z,-3.90
2019-01-25T02:48:52.803Z,-3.90
2019-01-25T02:51:41.258Z,-3.90
2019-01-25T02:54:10.642Z,-3.90
2019-01-25T02:56:43.034Z,-3.90
2019-01-25T02:59:12.304Z,-3.90
2019-01-25T03:01:41.992Z,-3.90
2019-01-25T03:04:11.653Z,-3.90
2019-01-25T03:06:41.203Z,-3.90
2019-01-25T03:09:11.092Z,-3.90
2019-01-25T03:11:40.747Z,-4.00
2019-01-25T03:14:10.154Z,-4.00
2019-01-25T03:16:39.879Z,-4.00
2019-01-25T03:19:20.830Z,-4.00
2019-01-25T03:21:50.412Z,-4.00
2019-01-25T03:24:19.683Z,-4.00
2019-01-25T03:26:49.142Z,-4.00
2019-01-25T03:29:19.261Z,-4.00
2019-01-25T03:31:48.928Z,-4.00
2019-01-25T03:34:18.180Z,-4.00
2019-01-25T03:36:47.405Z,-4.00
2019-01-25T03:39:16.677Z,-4.00
2019-01-25T03:41:46.005Z,-4.00
2019-01-25T03:44:15.263Z,-4.00
2019-01-25T03:46:44.949Z,-4.00
2019-01-25T03:49:14.375Z,-4.00
2019-01-25T03:51:43.578Z,-4.00
2019-01-25T03:54:13.223Z,-4.00
2019-01-25T03:56:42.664Z,-4.00
2019-01-25T03:59:11.971Z,-4.00
2019-01-25T04:01:41.236Z,-4.00
2019-01-25T04:04:10.624Z,-4.00
2019-01-25T04:06:40.257Z,-4.00
2019-01-25T04:09:10.728Z,-4.00
2019-01-25T04:11:40.314Z,-4.00
2019-01-25T04:14:09.957Z,-4.00
2019-01-25T04:16:39.218Z,-4.00
2019-01-25T04:19:08.868Z,-4.00
2019-01-25T04:21:38.122Z,-4.00
2019-01-25T04:24:07.429Z,-4.00
2019-01-25T04:26:37.155Z,-4.00
2019-01-25T04:29:06.835Z,-4.00
2019-01-25T04:31:36.472Z,-4.00
2019-01-25T04:34:06.151Z,-4.00
2019-01-25T04:36:35.353Z,-4.00
2019-01-25T04:39:08.418Z,-3.90
2019-01-25T04:41:38.087Z,-3.90
2019-01-25T04:44:07.866Z,-3.90
2019-01-25T04:46:37.468Z,-4.00
2019-01-25T04:49:06.730Z,-4.00
2019-01-25T04:51:36.607Z,-4.00
2019-01-25T04:54:05.889Z,-4.10
2019-01-25T04:56:38.535Z,-4.10
2019-01-25T04:59:08.221Z,-4.10
2019-01-25T05:01:37.847Z,-4.10
2019-01-25T05:04:07.458Z,-4.10
2019-01-25T05:06:37.110Z,-4.10
2019-01-25T05:09:09.075Z,-4.10
2019-01-25T05:11:38.359Z,-4.10
2019-01-25T05:14:08.081Z,-4.00
2019-01-25T05:16:57.204Z,-4.00
2019-01-25T05:19:26.476Z,-4.00
2019-01-25T05:21:56.067Z,-4.00
2019-01-25T05:24:25.737Z,-4.00
2019-01-25T05:26:58.597Z,-4.00
2019-01-25T05:29:51.828Z,-4.00
2019-01-25T05:32:21.457Z,-4.10
2019-01-25T05:34:51.366Z,-4.10
2019-01-25T05:37:21.056Z,-4.10
2019-01-25T05:39:50.250Z,-4.10
2019-01-25T05:42:19.900Z,-4.10
2019-01-25T05:44:49.634Z,-4.10
2019-01-25T05:47:18.890Z,-4.10
2019-01-25T05:49:49.186Z,-4.10
2019-01-25T05:52:20.414Z,-4.10
2019-01-25T05:54:49.665Z,-4.10
2019-01-25T05:57:19.434Z,-4.10
2019-01-25T05:59:49.466Z,-4.10
2019-01-25T06:02:18.811Z,-4.10
2019-01-25T06:04:48.405Z,-4.10
2019-01-25T06:07:18.062Z,-4.10
2019-01-25T06:09:47.336Z,-4.10
2019-01-25T06:12:16.587Z,-4.20
2019-01-25T06:14:46.216Z,-4.20
2019-01-25T06:17:15.911Z,-4.20
2019-01-25T06:19:45.160Z,-4.10
2019-01-25T06:22:14.549Z,-4.10
2019-01-25T06:24:47.934Z,-4.10
2019-01-25T06:27:17.161Z,-4.10
2019-01-25T06:29:49.503Z,-4.10
2019-01-25T06:32:18.760Z,-4.10
2019-01-25T06:34:48.319Z,-4.10
2019-01-25T06:37:17.943Z,-4.10
2019-01-25T06:39:47.962Z,-4.10
2019-01-25T06:42:17.236Z,-4.00
2019-01-25T06:44:46.742Z,-4.10
2019-01-25T06:47:16.659Z,-4.10
2019-01-25T06:49:46.422Z,-4.10
2019-01-25T06:52:16.881Z,-4.10
2019-01-25T06:54:46.378Z,-4.10
2019-01-25T06:57:37.331Z,-4.10
2019-01-25T07:00:08.948Z,-4.10
2019-01-25T07:02:40.306Z,-4.10
2019-01-25T07:05:12.849Z,-4.00
2019-01-25T07:07:44.023Z,-4.10
2019-01-25T07:10:15.955Z,-4.10
2019-01-25T07:12:45.330Z,-4.10
2019-01-25T07:15:16.762Z,-4.10
2019-01-25T07:17:46.538Z,-4.10
2019-01-25T07:20:15.937Z,-4.10
2019-01-25T07:22:45.501Z,-4.10
2019-01-25T07:25:14.907Z,-4.10
2019-01-25T07:27:44.158Z,-4.10
2019-01-25T07:30:32.712Z,-4.10
2019-01-25T07:33:02.519Z,-4.10
2019-01-25T07:35:50.964Z,-4.10
2019-01-25T07:38:20.551Z,-4.10
2019-01-25T07:40:49.857Z,-4.00
2019-01-25T07:43:19.869Z,-4.00
2019-01-25T07:45:49.268Z,-4.00
2019-01-25T07:48:18.921Z,-4.00
2019-01-25T07:50:48.290Z,-4.00
2019-01-25T07:53:18.245Z,-4.00
2019-01-25T07:55:47.915Z,-4.00
2019-01-25T07:58:17.377Z,-4.00
2019-01-25T08:00:47.452Z,-4.00
2019-01-25T08:03:17.089Z,-4.00
2019-01-25T08:05:46.656Z,-4.00
2019-01-25T08:08:15.916Z,-4.00
2019-01-25T08:10:45.170Z,-4.00
2019-01-25T08:13:14.569Z,-4.00
2019-01-25T08:15:43.795Z,-3.90
2019-01-25T08:18:13.079Z,-3.90
2019-01-25T08:20:42.724Z,-3.90
2019-01-25T08:23:12.074Z,-3.90
2019-01-25T08:25:41.458Z,-3.90
2019-01-25T08:28:11.183Z,-3.90
2019-01-25T08:30:40.915Z,-3.80
2019-01-25T08:33:10.629Z,-3.80
2019-01-25T08:35:40.713Z,-3.80
2019-01-25T08:38:15.984Z,-3.80
2019-01-25T08:40:45.669Z,-3.80
2019-01-25T08:43:16.086Z,-3.70
2019-01-25T08:45:45.472Z,-3.70
2019-01-25T08:48:14.729Z,-3.70
2019-01-25T08:50:44.411Z,-3.60
2019-01-25T08:53:14.140Z,-3.60
2019-01-25T08:55:43.831Z,-3.50
2019-01-25T08:58:13.468Z,-3.50
2019-01-25T09:00:42.758Z,-3.50
2019-01-25T09:03:11.982Z,-3.40
2019-01-25T09:05:41.643Z,-3.40
2019-01-25T09:08:10.955Z,-3.30
2019-01-25T09:10:40.174Z,-3.30
2019-01-25T09:13:09.742Z,-3.30
2019-01-25T09:15:39.161Z,-3.30
2019-01-25T09:18:08.781Z,-3.30
2019-01-25T09:20:38.437Z,-3.30
2019-01-25T09:23:07.702Z,-3.20
2019-01-25T09:25:37.459Z,-3.20
2019-01-25T09:28:07.101Z,-3.20
2019-01-25T09:30:36.326Z,-3.20
2019-01-25T09:33:05.546Z,-3.10
2019-01-25T09:35:35.379Z,-3.00
2019-01-25T09:38:05.049Z,-3.00
2019-01-25T09:40:34.277Z,-3.00
2019-01-25T09:43:03.515Z,-2.90
2019-01-25T09:45:33.197Z,-2.90
2019-01-25T09:48:02.478Z,-2.90
2019-01-25T09:50:31.758Z,-2.80
2019-01-25T09:53:20.321Z,-2.80
2019-01-25T09:55:49.733Z,-2.80
2019-01-25T09:58:19.917Z,-2.80
2019-01-25T10:01:05.006Z,-2.70
2019-01-25T10:03:34.994Z,-2.70
2019-01-25T10:06:04.580Z,-2.70
2019-01-25T10:08:34.394Z,-2.60
2019-01-25T10:11:03.626Z,-2.70
2019-01-25T10:13:33.605Z,-2.70
2019-01-25T10:16:03.465Z,-2.70
2019-01-25T10:18:32.709Z,-2.70
2019-01-25T10:21:02.304Z,-2.60
2019-01-25T10:23:31.515Z,-2.70
2019-01-25T10:26:00.809Z,-2.70
2019-01-25T10:28:30.491Z,-2.80
2019-01-25T10:30:59.870Z,-2.70
2019-01-25T10:33:29.505Z,-2.80
2019-01-25T10:35:59.146Z,-2.70
2019-01-25T10:38:28.722Z,-2.80
2019-01-25T10:40:58.474Z,-2.80
2019-01-25T10:43:27.734Z,-2.80
2019-01-25T10:45:57.127Z,-2.80
2019-01-25T10:48:26.505Z,-2.70
2019-01-25T10:50:55.911Z,-2.70
2019-01-25T10:53:26.400Z,-2.70
2019-01-25T10:55:56.136Z,-2.70
2019-01-25T10:58:25.771Z,-2.60
2019-01-25T11:00:55.948Z,-2.60
2019-01-25T11:03:25.203Z,-2.60
2019-01-25T11:05:54.457Z,-2.60
2019-01-25T11:08:23.871Z,-2.60
2019-01-25T11:10:53.091Z,-2.60
2019-01-25T11:13:22.515Z,-2.60
2019-01-25T11:15:52.622Z,-2.70
2019-01-25T11:18:22.526Z,-2.70
2019-01-25T11:20:52.179Z,-2.70
2019-01-25T11:23:21.810Z,-2.70
2019-01-25T11:25:51.025Z,-2.70
2019-01-25T11:28:20.467Z,-2.70
2019-01-25T11:30:50.197Z,-2.70
2019-01-25T11:33:19.558Z,-2.60
2019-01-25T11:35:49.158Z,-2.60
2019-01-25T11:38:18.440Z,-2.60
2019-01-25T11:40:48.014Z,-2.60
2019-01-25T11:43:17.674Z,-2.60
2019-01-25T11:45:46.932Z,-2.60
2019-01-25T11:48:16.162Z,-2.60
2019-01-25T11:50:45.957Z,-2.50
2019-01-25T11:53:15.603Z,-2.60
2019-01-25T11:55:45.283Z,-2.60
2019-01-25T11:58:14.693Z,-2.60
2019-01-25T12:00:45.758Z,-2.60
2019-01-25T12:03:15.158Z,-2.60
2019-01-25T12:05:44.383Z,-2.60
2019-01-25T12:08:13.642Z,-2.60
2019-01-25T12:10:43.391Z,-2.60
2019-01-25T12:13:16.237Z,-2.60
2019-01-25T12:15:55.867Z,-2.60
2019-01-25T12:18:25.358Z,-2.70
2019-01-25T12:20:55.083Z,-2.70
2019-01-25T12:23:24.670Z,-2.70
2019-01-25T12:25:54.029Z,-2.70
2019-01-25T12:28:23.836Z,-2.60
2019-01-25T12:30:53.788Z,-2.60
2019-01-25T12:33:23.175Z,-2.60
2019-01-25T12:35:52.630Z,-2.60
2019-01-25T12:38:21.921Z,-2.70
2019-01-25T12:40:51.533Z,-2.70
2019-01-25T12:43:24.211Z,-2.60
2019-01-25T12:45:52.562Z,-2.60
2019-01-25T12:48:22.181Z,-2.60
2019-01-25T12:50:59.045Z,-2.60
2019-01-25T12:53:28.897Z,-2.60
2019-01-25T12:55:58.562Z,-2.70
2019-01-25T12:58:46.960Z,-2.80
2019-01-25T13:01:16.235Z,-2.90
2019-01-25T13:03:45.843Z,-2.90
2019-01-25T13:06:15.702Z,-2.90
2019-01-25T13:08:45.353Z,-2.90
2019-01-25T13:11:14.598Z,-2.90
2019-01-25T13:14:03.008Z,-3.00
2019-01-25T13:16:32.967Z,-3.00
2019-01-25T13:19:02.642Z,-3.00
2019-01-25T13:21:32.149Z,-3.00
2019-01-25T13:24:02.096Z,-3.10
2019-01-25T13:26:31.512Z,-3.00
2019-01-25T13:29:01.132Z,-3.00
2019-01-25T13:31:30.788Z,-3.10
2019-01-25T13:34:00.458Z,-3.10
2019-01-25T13:36:30.401Z,-3.20
2019-01-25T13:39:00.113Z,-3.20
2019-01-25T13:41:48.555Z,-3.20
2019-01-25T13:44:17.824Z,-3.20
2019-01-25T13:46:47.418Z,-3.30
2019-01-25T13:49:17.696Z,-3.30
2019-01-25T13:51:46.975Z,-3.30
2019-01-25T13:54:16.253Z,-3.30
2019-01-25T13:56:45.896Z,-3.20
2019-01-25T13:59:15.517Z,-3.30
2019-01-25T14:01:45.158Z,-3.20
2019-01-25T14:04:15.354Z,-3.30
2019-01-25T14:06:44.747Z,-3.30
2019-01-25T14:09:14.322Z,-3.30
2019-01-25T14:11:45.376Z,-3.30
2019-01-25T14:14:14.628Z,-3.30
2019-01-25T14:16:43.857Z,-3.30
2019-01-25T14:19:13.221Z,-3.30
2019-01-25T14:21:43.383Z,-3.30
2019-01-25T14:24:16.637Z,-3.30
2019-01-25T14:26:44.063Z,-3.30
2019-01-25T14:29:13.358Z,-3.30
2019-01-25T14:32:01.802Z,-3.30
2019-01-25T14:34:31.472Z,-3.30
2019-01-25T14:37:01.119Z,-3.40
2019-01-25T14:39:30.707Z,-3.40
2019-01-25T14:42:00.532Z,-3.40
2019-01-25T14:44:30.166Z,-3.50
2019-01-25T14:47:00.377Z,-3.40
2019-01-25T14:49:30.407Z,-3.50
2019-01-25T14:51:59.730Z,-3.50
2019-01-25T14:54:29.303Z,-3.50
2019-01-25T14:56:58.549Z,-3.50
2019-01-25T14:59:28.127Z,-3.50
2019-01-25T15:01:57.534Z,-3.60
2019-01-25T15:04:27.476Z,-3.60
2019-01-25T15:06:56.798Z,-3.60
2019-01-25T15:09:26.073Z,-3.60
2019-01-25T15:11:55.761Z,-3.60
2019-01-25T15:14:25.063Z,-3.70
2019-01-25T15:16:54.283Z,-3.70
2019-01-25T15:19:23.760Z,-3.70
2019-01-25T15:21:53.678Z,-3.70
2019-01-25T15:24:24.084Z,-3.70
2019-01-25T15:26:53.320Z,-3.70
2019-01-25T15:29:23.664Z,-3.80
2019-01-25T15:31:52.958Z,-3.80
2019-01-25T15:34:22.532Z,-3.80
2019-01-25T15:36:52.954Z,-3.80
2019-01-25T15:39:22.666Z,-3.80
2019-01-25T15:41:52.245Z,-3.80
2019-01-25T15:44:24.607Z,-3.80
2019-01-25T15:46:54.228Z,-3.80
2019-01-25T15:49:23.893Z,-3.80
2019-01-25T15:52:12.885Z,-3.80
2019-01-25T15:54:42.482Z,-3.90
2019-01-25T15:57:11.857Z,-3.80
2019-01-25T15:59:41.969Z,-3.80
2019-01-25T16:02:11.566Z,-3.80
2019-01-25T16:04:41.694Z,-3.90
2019-01-25T16:07:11.475Z,-3.80
2019-01-25T16:09:40.719Z,-3.80
2019-01-25T16:12:09.985Z,-3.80
2019-01-25T16:14:39.957Z,-3.90
2019-01-25T16:17:09.527Z,-3.90
2019-01-25T16:19:38.946Z,-3.90
2019-01-25T16:22:08.286Z,-3.90
2019-01-25T16:24:37.507Z,-3.90
2019-01-25T16:27:07.129Z,-3.90
2019-01-25T16:29:36.860Z,-3.90
2019-01-25T16:32:06.139Z,-3.90
2019-01-25T16:34:54.550Z,-3.90
2019-01-25T16:37:24.213Z,-3.90
2019-01-25T16:39:53.441Z,-3.90
2019-01-25T16:42:23.237Z,-3.90
2019-01-25T16:44:52.889Z,-3.90
2019-01-25T16:47:22.314Z,-3.90
2019-01-25T16:49:52.353Z,-3.90
2019-01-25T16:52:22.010Z,-3.90
2019-01-25T16:54:51.384Z,-3.90
2019-01-25T16:57:20.673Z,-3.90
2019-01-25T16:59:49.894Z,-3.90
2019-01-25T17:02:19.182Z,-4.00
2019-01-25T17:04:49.254Z,-4.00
2019-01-25T17:07:18.681Z,-3.90
2019-01-25T17:10:07.124Z,-4.00
2019-01-25T17:12:36.386Z,-3.90
2019-01-25T17:15:06.397Z,-3.90
2019-01-25T17:17:36.058Z,-3.90
2019-01-25T17:20:06.764Z,-3.90
2019-01-25T17:22:36.464Z,-3.90
2019-01-25T17:25:06.948Z,-3.90
2019-01-25T17:27:36.234Z,-3.90
2019-01-25T17:30:08.010Z,-3.90
2019-01-25T17:32:37.596Z,-3.90
2019-01-25T17:35:07.654Z,-3.90
2019-01-25T17:37:37.324Z,-3.80
2019-01-25T17:40:09.279Z,-3.80
2019-01-25T17:42:39.981Z,-3.80
2019-01-25T17:45:09.864Z,-3.80
2019-01-25T17:47:39.521Z,-3.80
2019-01-25T17:50:10.659Z,-3.80
2019-01-25T17:52:40.375Z,-3.80
2019-01-25T17:55:10.889Z,-3.80
2019-01-25T17:57:40.622Z,-3.80
2019-01-25T18:00:16.706Z,-3.80
2019-01-25T18:02:46.767Z,-3.80
2019-01-25T18:05:17.094Z,-3.70
2019-01-25T18:07:46.821Z,-3.70
2019-01-25T18:10:16.868Z,-3.70
2019-01-25T18:12:46.159Z,-3.70
2019-01-25T18:15:15.820Z,-3.70
2019-01-25T18:17:45.458Z,-3.70
2019-01-25T18:20:16.295Z,-3.70
2019-01-25T18:22:45.663Z,-3.70
2019-01-25T18:25:18.538Z,-3.80
2019-01-25T18:27:51.754Z,-3.80
2019-01-25T18:30:37.145Z,-3.80
2019-01-25T18:33:06.452Z,-3.80
2019-01-25T18:35:36.113Z,-3.90
2019-01-25T18:38:07.840Z,-3.90
2019-01-25T18:40:37.109Z,-3.90
2019-01-25T18:43:06.405Z,-4.00
2019-01-25T18:45:36.075Z,-4.00
2019-01-25T18:48:05.741Z,-4.00
2019-01-25T18:50:35.015Z,-4.00
2019-01-25T18:53:04.508Z,-4.00
2019-01-25T18:55:34.586Z,-4.10
2019-01-25T18:58:23.016Z,-4.10
2019-01-25T19:00:52.689Z,-4.10
2019-01-25T19:03:22.380Z,-4.10
2019-01-25T19:05:51.725Z,-4.10
2019-01-25T19:08:21.445Z,-4.10
2019-01-25T19:10:51.143Z,-4.10
2019-01-25T19:13:21.010Z,-4.10
2019-01-25T19:15:50.559Z,-4.10
2019-01-25T19:18:20.200Z,-4.10
2019-01-25T19:20:49.451Z,-4.10
2019-01-25T19:23:18.790Z,-4.10
2019-01-25T19:25:48.098Z,-4.10
2019-01-25T19:28:17.528Z,-4.10
2019-01-25T19:30:48.290Z,-4.10
2019-01-25T19:33:18.056Z,-4.00
2019-01-25T19:35:47.357Z,-4.00
2019-01-25T19:38:18.951Z,-4.00
2019-01-25T19:40:48.540Z,-4.00
2019-01-25T19:43:17.881Z,-4.00
2019-01-25T19:45:47.693Z,-4.00
2019-01-25T19:48:17.164Z,-4.00
2019-01-25T19:51:05.558Z,-3.90
2019-01-25T19:53:34.839Z,-3.90
2019-01-25T19:56:04.464Z,-3.90
2019-01-25T19:58:34.122Z,-3.90
2019-01-25T20:01:03.743Z,-3.90
2019-01-25T20:03:33.050Z,-3.80
2019-01-25T20:06:02.829Z,-3.80
2019-01-25T20:08:32.094Z,-3.80
2019-01-25T20:11:01.345Z,-3.80
2019-01-25T20:13:31.025Z,-3.70
2019-01-25T20:16:00.455Z,-3.70
2019-01-25T20:18:30.066Z,-3.70
2019-01-25T20:20:59.877Z,-3.60
2019-01-25T20:23:29.578Z,-3.60
2019-01-25T20:25:58.859Z,-3.60
2019-01-25T20:28:28.891Z,-3.50
2019-01-25T20:30:58.163Z,-3.50
2019-01-25T20:33:27.534Z,-3.50
2019-01-25T20:35:56.928Z,-3.40
2019-01-25T20:38:26.188Z,-3.40
2019-01-25T20:41:14.904Z,-3.40
2019-01-25T20:43:44.617Z,-3.40
2019-01-25T20:46:14.420Z,-3.30
2019-01-25T20:48:43.815Z,-3.30
2019-01-25T20:51:13.050Z,-3.30
2019-01-25T20:53:42.765Z,-3.30
2019-01-25T20:56:31.522Z,-3.20
2019-01-25T20:59:01.268Z,-3.20
2019-01-25T21:01:30.490Z,-3.20
2019-01-25T21:04:00.191Z,-3.10
2019-01-25T21:06:29.840Z,-3.10
2019-01-25T21:08:59.081Z,-3.10
2019-01-25T21:11:28.738Z,-3.00
2019-01-25T21:13:59.005Z,-3.00
2019-01-25T21:16:28.315Z,-2.90
2019-01-25T21:18:58.276Z,-2.90
2019-01-25T21:21:28.005Z,-2.90
2019-01-25T21:23:58.038Z,-2.80
2019-01-25T21:26:27.429Z,-2.80
2019-01-25T21:28:56.906Z,-2.70
2019-01-25T21:31:27.673Z,-2.70
2019-01-25T21:34:00.280Z,-2.60
2019-01-25T21:36:30.069Z,-2.60
2019-01-25T21:38:59.498Z,-2.50
2019-01-25T21:41:29.030Z,-2.50
2019-01-25T21:43:59.028Z,-2.40
2019-01-25T21:46:47.786Z,-2.40
2019-01-25T21:49:36.258Z,-2.40
2019-01-25T21:52:05.881Z,-2.30
2019-01-25T21:54:54.303Z,-2.30
2019-01-25T21:57:24.135Z,-2.30
2019-01-25T21:59:53.782Z,-2.20
2019-01-25T22:02:23.236Z,-2.20
2019-01-25T22:04:52.827Z,-2.20
2019-01-25T22:07:22.704Z,-2.10
2019-01-25T22:09:52.318Z,-2.10
2019-01-25T22:12:22.458Z,-2.10
2019-01-25T22:14:52.985Z,-2.00
2019-01-25T22:17:22.234Z,-2.00
2019-01-25T22:19:51.574Z,-2.00
2019-01-25T22:22:21.293Z,-1.90
2019-01-25T22:24:50.893Z,-1.90
2019-01-25T22:27:20.643Z,-1.90
2019-01-25T22:29:50.596Z,-1.80
2019-01-25T22:32:20.368Z,-1.80
2019-01-25T22:34:51.749Z,-1.80
2019-01-25T22:37:21.753Z,-1.80
2019-01-25T22:39:51.074Z,-1.70
2019-01-25T22:42:20.373Z,-1.70
2019-01-25T22:44:50.418Z,-1.60
2019-01-25T22:47:20.458Z,-1.60
2019-01-25T22:49:50.050Z,-1.60
2019-01-25T22:52:20.493Z,-1.60
2019-01-25T22:54:50.153Z,-1.60
2019-01-25T22:57:20.094Z,-1.50
2019-01-25T22:59:49.369Z,-1.50
2019-01-25T23:02:18.609Z,-1.50
2019-01-25T23:05:02.239Z,-1.50
2019-01-25T23:07:33.167Z,-1.40
2019-01-25T23:10:07.613Z,-1.40
2019-01-25T23:12:36.946Z,-1.40
2019-01-25T23:15:07.829Z,-1.40
2019-01-25T23:17:37.170Z,-1.30
2019-01-25T23:20:08.353Z,-1.30
2019-01-25T23:22:37.610Z,-1.30
2019-01-25T23:25:08.144Z,-1.30
2019-01-25T23:27:37.750Z,-1.20
2019-01-25T23:30:10.742Z,-1.20
2019-01-25T23:32:40.187Z,-1.20
2019-01-25T23:35:09.994Z,-1.10
2019-01-25T23:37:39.186Z,-1.10
2019-01-25T23:40:13.841Z,-1.10
2019-01-25T23:42:43.587Z,-1.00
2019-01-25T23:45:13.578Z,-1.00
2019-01-25T23:47:42.758Z,-0.90
2019-01-25T23:50:12.881Z,-0.90
2019-01-25T23:52:42.521Z,-0.90
2019-01-25T23:55:11.945Z,-0.80
2019-01-25T23:57:41.899Z,-0.80
